Time;durP1;ratioP1;P1;durP2;ratioP2;P2;SDS_P1;SDS_P2;PMS_P1;PMS_P2;Temp;Humidity;BMP_temperature;BMP_pressure;BME280_temperature;BME280_humidity;BME280_pressure;Samples;Min_cycle;Max_cycle;Signal;HPM_P1;HPM_P2
2023/09/18 00:00:04;;;;;;;7.22;4.55;;;19.80;99.90;;;;;;5094598;28;20568;-69
2023/09/18 00:02:31;;;;;;;10.98;4.90;;;19.80;99.90;;;;;;5093393;28;20497;-68
2023/09/18 00:04:57;;;;;;;6.82;4.60;;;19.80;99.90;;;;;;5081437;28;20402;-69
2023/09/18 00:07:22;;;;;;;9.50;4.70;;;19.80;99.90;;;;;;5074128;28;20044;-69
2023/09/18 00:09:48;;;;;;;9.48;4.30;;;19.80;99.90;;;;;;5072838;28;20111;-70
2023/09/18 00:12:14;;;;;;;8.77;4.72;;;19.80;99.90;;;;;;5083168;28;20024;-70
2023/09/18 00:14:41;;;;;;;8.82;4.80;;;19.80;99.90;;;;;;5094586;28;20039;-70
2023/09/18 00:17:07;;;;;;;6.50;4.43;;;19.70;99.90;;;;;;5093989;28;20032;-68
2023/09/18 00:19:33;;;;;;;7.88;4.45;;;19.60;99.90;;;;;;5094348;28;20047;-70
2023/09/18 00:22:00;;;;;;;8.63;4.47;;;19.60;99.90;;;;;;5093568;28;20508;-70
2023/09/18 00:24:27;;;;;;;7.47;4.47;;;19.50;99.90;;;;;;5094190;28;20130;-70
2023/09/18 00:26:52;;;;;;;5.88;4.20;;;19.50;99.90;;;;;;5092883;28;20020;-70
2023/09/18 00:29:19;;;;;;;5.95;4.00;;;19.50;99.90;;;;;;5094039;28;20084;-69
2023/09/18 00:31:45;;;;;;;8.93;4.47;;;19.40;99.90;;;;;;5076284;28;20037;-70
2023/09/18 00:34:10;;;;;;;9.63;4.43;;;19.40;99.90;;;;;;5075215;28;20032;-69
2023/09/18 00:36:36;;;;;;;6.65;4.25;;;19.40;99.90;;;;;;5084423;28;20024;-67
2023/09/18 00:39:03;;;;;;;9.80;4.20;;;19.40;99.90;;;;;;5088860;28;20224;-69
2023/09/18 00:41:29;;;;;;;8.52;4.20;;;19.40;99.90;;;;;;5073730;28;20099;-69
2023/09/18 00:43:54;;;;;;;10.35;4.15;;;19.50;99.90;;;;;;5073561;28;20461;-69
2023/09/18 00:46:21;;;;;;;6.07;3.72;;;19.50;99.90;;;;;;5073173;28;20029;-67
2023/09/18 00:48:46;;;;;;;7.60;3.90;;;19.50;99.90;;;;;;5074384;28;20052;-68
2023/09/18 00:51:13;;;;;;;7.38;4.45;;;19.50;99.90;;;;;;5085522;28;20060;-70
2023/09/18 00:53:43;;;;;;;6.18;3.90;;;19.40;99.90;;;;;;5093988;28;20529;-71
2023/09/18 00:56:09;;;;;;;4.35;3.47;;;19.40;99.90;;;;;;5091686;28;20050;-69
2023/09/18 00:58:35;;;;;;;6.28;3.97;;;19.30;99.90;;;;;;5093427;28;20040;-71
2023/09/18 01:01:01;;;;;;;5.95;3.78;;;19.40;99.90;;;;;;5072816;28;20024;-70
2023/09/18 01:03:27;;;;;;;7.18;3.60;;;19.50;99.90;;;;;;5091022;28;20028;-70
2023/09/18 01:05:53;;;;;;;8.68;3.92;;;19.50;99.90;;;;;;5093744;28;20748;-70
2023/09/18 01:08:19;;;;;;;7.78;3.80;;;19.60;99.90;;;;;;5093311;28;20416;-70
2023/09/18 01:10:59;;;;;;;7.85;3.33;;;19.60;99.90;;;;;;5092113;28;20032;-71
2023/09/18 01:13:30;;;;;;;5.88;3.50;;;19.50;99.90;;;;;;5093402;28;20119;-71
2023/09/18 01:16:06;;;;;;;6.90;3.47;;;19.50;99.90;;;;;;5093281;28;20479;-70
2023/09/18 01:18:32;;;;;;;8.77;3.67;;;19.50;99.90;;;;;;5093840;28;20115;-71
2023/09/18 01:20:58;;;;;;;8.02;3.60;;;19.60;99.90;;;;;;5080517;28;20451;-71
2023/09/18 01:23:23;;;;;;;5.20;3.25;;;19.60;99.90;;;;;;5073020;28;20115;-71
2023/09/18 01:25:49;;;;;;;9.40;4.00;;;19.50;99.90;;;;;;5072268;28;20111;-71
2023/09/18 01:28:16;;;;;;;5.80;3.35;;;19.50;99.90;;;;;;5071987;28;20172;-69
2023/09/18 01:30:42;;;;;;;5.15;3.22;;;19.50;99.90;;;;;;5088902;28;20040;-70
2023/09/18 01:33:09;;;;;;;5.68;3.65;;;19.50;99.90;;;;;;5091139;28;20040;-71
2023/09/18 01:35:34;;;;;;;5.78;3.20;;;19.60;99.90;;;;;;5092971;28;20474;-69
2023/09/18 01:38:01;;;;;;;8.40;3.70;;;19.40;99.90;;;;;;5093362;28;20035;-70
2023/09/18 01:40:28;;;;;;;4.20;3.50;;;19.40;99.90;;;;;;5092002;28;20028;-70
2023/09/18 01:42:53;;;;;;;7.03;3.33;;;19.40;99.90;;;;;;5092514;28;20405;-70
2023/09/18 01:45:19;;;;;;;7.82;3.78;;;19.40;99.90;;;;;;5091732;28;20103;-71
2023/09/18 01:47:46;;;;;;;8.18;4.00;;;19.40;99.90;;;;;;5092992;28;20024;-71
2023/09/18 01:50:13;;;;;;;8.43;4.05;;;19.20;99.90;;;;;;5079996;28;20029;-71
2023/09/18 01:52:38;;;;;;;4.93;3.50;;;19.20;99.90;;;;;;5071422;28;20568;-71
2023/09/18 01:55:04;;;;;;;9.05;3.30;;;19.20;99.90;;;;;;5072275;28;20048;-70
2023/09/18 01:57:30;;;;;;;5.90;3.20;;;19.20;99.90;;;;;;5075956;28;20033;-71
2023/09/18 01:59:56;;;;;;;7.05;3.38;;;19.20;99.90;;;;;;5071291;28;20402;-70
2023/09/18 02:02:21;;;;;;;6.15;3.40;;;19.10;99.90;;;;;;5080360;28;20123;-70
2023/09/18 02:04:47;;;;;;;6.38;3.22;;;19.10;99.90;;;;;;5092241;28;20034;-70
2023/09/18 02:07:13;;;;;;;6.22;3.20;;;19.10;99.90;;;;;;5091890;28;20044;-71
2023/09/18 02:09:39;;;;;;;4.20;2.95;;;19.20;99.90;;;;;;5090392;28;20028;-71
2023/09/18 02:12:05;;;;;;;7.53;3.30;;;19.20;99.90;;;;;;5088666;28;20051;-70
2023/09/18 02:14:31;;;;;;;5.28;3.20;;;19.10;99.90;;;;;;5086587;28;20096;-71
2023/09/18 02:16:57;;;;;;;6.50;3.45;;;19.10;99.90;;;;;;5092273;28;20372;-70
2023/09/18 02:19:23;;;;;;;5.68;3.20;;;19.00;99.90;;;;;;5073637;28;20086;-71
2023/09/18 02:21:49;;;;;;;6.95;3.33;;;19.10;99.90;;;;;;5076928;28;20109;-69
2023/09/18 02:24:14;;;;;;;4.45;3.30;;;19.10;99.90;;;;;;5091070;28;20028;-71
2023/09/18 02:26:40;;;;;;;5.90;3.50;;;19.10;99.90;;;;;;5091728;28;20023;-70
2023/09/18 02:29:07;;;;;;;5.40;3.38;;;19.10;99.90;;;;;;5076932;28;20112;-71
2023/09/18 02:31:33;;;;;;;5.45;3.15;;;19.00;99.90;;;;;;5071797;28;20086;-71
2023/09/18 02:33:59;;;;;;;5.82;2.92;;;19.00;99.90;;;;;;5071620;28;20423;-71
2023/09/18 02:36:25;;;;;;;6.32;3.00;;;19.10;99.90;;;;;;5075644;28;20039;-71
2023/09/18 02:38:50;;;;;;;6.72;3.13;;;19.00;99.90;;;;;;5078339;28;20036;-70
2023/09/18 02:41:16;;;;;;;6.43;3.22;;;19.00;99.90;;;;;;5071163;28;20029;-71
2023/09/18 02:43:42;;;;;;;6.30;2.70;;;19.00;99.90;;;;;;5071387;28;20036;-71
2023/09/18 02:46:08;;;;;;;5.40;2.83;;;19.00;99.90;;;;;;5071682;28;20025;-70
2023/09/18 02:48:34;;;;;;;5.95;3.00;;;19.00;99.90;;;;;;5080547;28;20068;-71
2023/09/18 02:51:02;;;;;;;8.63;2.88;;;19.10;99.90;;;;;;5092130;28;20548;-71
2023/09/18 02:53:29;;;;;;;4.63;2.90;;;19.00;99.90;;;;;;5091296;28;20482;-69
2023/09/18 02:55:56;;;;;;;5.63;2.80;;;19.00;99.90;;;;;;5089979;28;20024;-71
2023/09/18 02:58:22;;;;;;;4.97;2.85;;;19.00;99.90;;;;;;5090538;28;20048;-71
2023/09/18 03:00:50;;;;;;;6.00;2.88;;;19.00;99.90;;;;;;5091147;28;20120;-71
2023/09/18 03:03:16;;;;;;;4.65;2.60;;;19.00;99.90;;;;;;5091475;28;20036;-71
2023/09/18 03:05:43;;;;;;;4.00;2.60;;;19.00;99.90;;;;;;5091587;28;20119;-71
2023/09/18 03:08:10;;;;;;;6.47;3.05;;;19.00;99.90;;;;;;5085483;28;20392;-71
2023/09/18 03:10:41;;;;;;;5.90;2.80;;;18.90;99.90;;;;;;5070558;28;20390;-71
2023/09/18 03:13:08;;;;;;;4.78;2.70;;;18.90;99.90;;;;;;5089688;28;20135;-70
2023/09/18 03:15:34;;;;;;;4.15;2.60;;;18.80;99.90;;;;;;5091267;28;20019;-71
2023/09/18 03:18:01;;;;;;;7.10;2.78;;;18.80;99.90;;;;;;5090248;28;20119;-71
2023/09/18 03:20:28;;;;;;;5.22;2.85;;;18.80;99.90;;;;;;5091304;28;20385;-71
2023/09/18 03:22:56;;;;;;;4.43;2.42;;;18.80;99.90;;;;;;5078644;28;20047;-71
2023/09/18 03:25:23;;;;;;;5.72;2.92;;;18.80;99.90;;;;;;5070951;28;20024;-70
2023/09/18 03:27:50;;;;;;;5.47;2.60;;;18.80;99.90;;;;;;5070336;28;20029;-71
2023/09/18 03:30:16;;;;;;;4.22;2.60;;;18.80;99.90;;;;;;5069651;28;20016;-71
2023/09/18 03:32:42;;;;;;;6.32;2.60;;;18.80;99.90;;;;;;5070924;28;20563;-70
2023/09/18 03:35:15;;;;;;;3.53;2.90;;;18.80;99.90;;;;;;5071511;28;20034;-70
2023/09/18 03:37:41;;;;;;;4.90;2.38;;;18.70;99.90;;;;;;5071326;28;20040;-70
2023/09/18 03:40:08;;;;;;;3.28;2.47;;;18.70;99.90;;;;;;5090555;28;20024;-69
2023/09/18 03:42:34;;;;;;;4.45;2.60;;;18.80;99.90;;;;;;5091064;28;20054;-70
2023/09/18 03:45:00;;;;;;;4.15;2.30;;;18.70;99.90;;;;;;5091159;28;20016;-71
2023/09/18 03:47:26;;;;;;;6.72;2.47;;;18.70;99.90;;;;;;5089554;28;20398;-70
2023/09/18 03:49:51;;;;;;;6.13;2.80;;;18.60;99.90;;;;;;5090134;28;20088;-70
2023/09/18 03:52:17;;;;;;;3.88;2.25;;;18.60;99.90;;;;;;5075819;28;20456;-70
2023/09/18 03:54:42;;;;;;;5.72;2.25;;;18.70;99.90;;;;;;5070259;28;20040;-70
2023/09/18 03:57:08;;;;;;;6.00;2.35;;;18.80;99.90;;;;;;5070523;28;20025;-69
2023/09/18 03:59:34;;;;;;;3.65;2.28;;;18.70;99.90;;;;;;5070760;28;20036;-70
2023/09/18 04:02:00;;;;;;;3.55;2.65;;;18.60;99.90;;;;;;5082445;28;20028;-71
2023/09/18 04:04:25;;;;;;;3.58;2.17;;;18.60;99.90;;;;;;5089473;28;20069;-69
2023/09/18 04:06:51;;;;;;;3.75;2.53;;;18.70;99.90;;;;;;5089559;28;20513;-71
2023/09/18 04:09:17;;;;;;;3.92;2.25;;;18.70;99.90;;;;;;5076477;28;20119;-70
2023/09/18 04:11:43;;;;;;;3.33;2.50;;;18.60;99.90;;;;;;5070413;28;20086;-71
2023/09/18 04:14:09;;;;;;;6.30;2.60;;;18.50;99.90;;;;;;5082474;28;20036;-70
2023/09/18 04:16:35;;;;;;;3.22;2.40;;;18.60;99.90;;;;;;5090600;28;20032;-71
2023/09/18 04:19:01;;;;;;;3.45;2.60;;;18.60;99.90;;;;;;5078383;28;20265;-71
2023/09/18 04:21:29;;;;;;;6.38;2.75;;;18.70;99.90;;;;;;5071725;28;20028;-71
2023/09/18 04:23:57;;;;;;;6.78;2.53;;;18.70;99.90;;;;;;5088221;28;20444;-72
2023/09/18 04:26:30;;;;;;;4.38;2.40;;;18.60;99.90;;;;;;5086142;28;20487;-70
2023/09/18 04:28:56;;;;;;;;;;;18.60;99.90;;;;;;5080450;28;20046;-71
2023/09/18 04:31:22;;;;;;;4.40;2.33;;;18.70;99.90;;;;;;5091096;28;19930;-70
2023/09/18 04:33:48;;;;;;;5.65;2.63;;;18.70;99.90;;;;;;5094085;28;20098;-71
2023/09/18 04:36:14;;;;;;;4.55;2.60;;;18.70;99.90;;;;;;5093848;28;20036;-71
2023/09/18 04:38:39;;;;;;;7.22;2.70;;;18.80;99.90;;;;;;5092923;28;20521;-70
2023/09/18 04:41:07;;;;;;;4.53;2.65;;;18.80;99.90;;;;;;5083996;28;20115;-69
2023/09/18 04:43:34;;;;;;;3.70;2.60;;;18.80;99.90;;;;;;5074152;28;20494;-69
2023/09/18 04:46:02;;;;;;;4.43;2.45;;;18.70;99.90;;;;;;5073718;28;20024;-70
2023/09/18 04:48:28;;;;;;;3.55;2.40;;;18.90;99.90;;;;;;5073162;28;20024;-70
2023/09/18 04:50:54;;;;;;;4.22;2.40;;;18.80;99.90;;;;;;5078486;28;20029;-69
2023/09/18 04:53:19;;;;;;;5.63;2.35;;;18.90;99.90;;;;;;5074763;28;20185;-71
2023/09/18 04:55:49;;;;;;;3.97;2.55;;;18.70;99.90;;;;;;5106102;28;20031;-70
2023/09/18 04:58:15;;;;;;;3.20;2.33;;;18.60;99.90;;;;;;5073498;28;20032;-70
2023/09/18 05:00:41;;;;;;;3.90;2.15;;;18.70;99.90;;;;;;5073434;28;20182;-70
2023/09/18 05:03:08;;;;;;;4.40;2.55;;;18.60;99.90;;;;;;5087324;28;20489;-71
2023/09/18 05:05:34;;;;;;;5.93;2.53;;;18.50;99.90;;;;;;5091481;28;20024;-72
2023/09/18 05:08:07;;;;;;;4.35;2.53;;;18.50;99.90;;;;;;5091637;28;20039;-72
2023/09/18 05:10:37;;;;;;;5.65;2.78;;;18.50;99.90;;;;;;5073019;28;20571;-72
2023/09/18 05:13:03;;;;;;;4.38;2.45;;;18.50;99.90;;;;;;5075778;28;20037;-71
2023/09/18 05:15:29;;;;;;;4.68;2.30;;;18.70;99.90;;;;;;5089951;28;20512;-71
2023/09/18 05:17:57;;;;;;;5.85;2.58;;;18.60;99.90;;;;;;5072234;28;20071;-72
2023/09/18 05:20:24;;;;;;;4.60;2.33;;;18.60;99.90;;;;;;5088755;28;20036;-71
2023/09/18 05:22:54;;;;;;;3.67;2.40;;;18.60;99.90;;;;;;5093179;28;20437;-71
2023/09/18 05:25:24;;;;;;;7.22;2.67;;;18.60;99.90;;;;;;5093031;28;20107;-70
2023/09/18 05:27:58;;;;;;;6.32;2.70;;;18.60;99.90;;;;;;5092469;28;20028;-70
2023/09/18 05:30:25;;;;;;;;;;;18.60;99.90;;;;;;5076770;28;20051;-70
2023/09/18 05:32:51;;;;;;;4.65;2.40;;;18.60;99.90;;;;;;5092917;28;19903;-71
2023/09/18 05:35:17;;;;;;;3.63;2.40;;;18.50;99.90;;;;;;5092671;28;20116;-71
2023/09/18 05:37:43;;;;;;;4.30;2.40;;;18.60;99.90;;;;;;5092934;28;20489;-70
2023/09/18 05:40:11;;;;;;;5.45;2.63;;;18.60;99.90;;;;;;5073881;28;20150;-70
2023/09/18 05:42:38;;;;;;;3.70;2.47;;;18.40;99.90;;;;;;5072510;28;20131;-71
2023/09/18 05:45:05;;;;;;;4.82;2.40;;;18.50;99.90;;;;;;5072820;28;20027;-71
2023/09/18 05:47:35;;;;;;;4.75;2.40;;;18.60;99.90;;;;;;5071940;28;20111;-71
2023/09/18 05:50:03;;;;;;;3.58;2.42;;;18.60;99.90;;;;;;5080396;28;20036;-71
2023/09/18 05:52:30;;;;;;;5.07;2.40;;;18.60;99.90;;;;;;5088813;28;20051;-72
2023/09/18 05:54:56;;;;;;;4.55;2.35;;;18.70;99.90;;;;;;5073019;28;20029;-72
2023/09/18 05:57:21;;;;;;;6.20;2.60;;;18.60;99.90;;;;;;5093057;28;20745;-71
2023/09/18 05:59:47;;;;;;;4.07;2.45;;;18.60;99.90;;;;;;5089740;28;20044;-71
2023/09/18 06:02:13;;;;;;;4.57;2.05;;;18.60;99.90;;;;;;5092011;28;20043;-72
2023/09/18 06:04:39;;;;;;;4.43;2.30;;;18.50;99.90;;;;;;5090464;28;20032;-71
2023/09/18 06:07:04;;;;;;;4.68;2.40;;;18.70;99.90;;;;;;5092063;28;20036;-71
2023/09/18 06:09:30;;;;;;;5.20;2.33;;;18.60;99.90;;;;;;5089007;28;20029;-69
2023/09/18 06:11:56;;;;;;;3.08;2.10;;;18.70;99.90;;;;;;5092024;28;20039;-70
2023/09/18 06:14:22;;;;;;;4.78;2.60;;;18.70;99.90;;;;;;5091926;28;20039;-70
2023/09/18 06:16:47;;;;;;;2.83;2.45;;;18.80;99.90;;;;;;5092640;28;20032;-70
2023/09/18 06:19:13;;;;;;;5.68;2.28;;;18.70;99.90;;;;;;5085881;28;20088;-70
2023/09/18 06:21:39;;;;;;;4.55;2.30;;;18.90;99.90;;;;;;5091866;28;20035;-70
2023/09/18 06:24:06;;;;;;;4.53;2.65;;;18.90;99.90;;;;;;5092249;28;20028;-70
2023/09/18 06:26:31;;;;;;;5.40;2.70;;;18.90;99.90;;;;;;5087698;28;20064;-69
2023/09/18 06:28:57;;;;;;;3.55;2.30;;;19.00;99.90;;;;;;5086787;28;20092;-70
2023/09/18 06:31:23;;;;;;;5.85;2.33;;;18.90;99.90;;;;;;5090464;28;20173;-70
2023/09/18 06:33:49;;;;;;;3.88;2.22;;;19.00;99.90;;;;;;5089909;28;20012;-70
2023/09/18 06:36:15;;;;;;;2.97;2.00;;;19.10;99.90;;;;;;5090229;28;20028;-70
2023/09/18 06:38:40;;;;;;;4.03;2.28;;;19.20;99.90;;;;;;5073109;28;20037;-69
2023/09/18 06:41:06;;;;;;;2.85;2.33;;;19.10;99.90;;;;;;5070224;28;20121;-71
2023/09/18 06:43:31;;;;;;;3.63;2.17;;;19.20;99.90;;;;;;5071650;28;20021;-72
2023/09/18 06:46:00;;;;;;;3.35;2.03;;;19.50;99.90;;;;;;5071622;28;20115;-72
2023/09/18 06:48:26;;;;;;;4.72;2.45;;;19.50;99.90;;;;;;5084801;28;20028;-70
2023/09/18 06:50:51;;;;;;;2.58;2.00;;;19.60;99.90;;;;;;5089412;28;20038;-72
2023/09/18 06:53:17;;;;;;;6.47;2.35;;;19.60;99.90;;;;;;5087545;28;20059;-72
2023/09/18 06:55:43;;;;;;;5.65;2.22;;;19.70;99.90;;;;;;5081237;28;20424;-72
2023/09/18 06:58:09;;;;;;;4.60;2.10;;;19.70;99.90;;;;;;5078712;28;20064;-71
2023/09/18 07:00:35;;;;;;;4.18;1.95;;;19.80;99.90;;;;;;5091678;28;20101;-71
2023/09/18 07:03:00;;;;;;;2.88;2.00;;;19.90;99.90;;;;;;5091038;28;20028;-71
2023/09/18 07:05:26;;;;;;;6.80;2.10;;;19.80;99.90;;;;;;5091075;28;20036;-71
2023/09/18 07:07:52;;;;;;;3.10;2.00;;;19.80;99.90;;;;;;5089868;28;20501;-72
2023/09/18 07:10:18;;;;;;;4.85;2.15;;;19.80;99.90;;;;;;5088469;28;20036;-71
2023/09/18 07:12:44;;;;;;;3.25;2.00;;;19.80;99.90;;;;;;5090519;28;20089;-70
2023/09/18 07:15:10;;;;;;;3.50;2.10;;;19.90;99.90;;;;;;5071276;28;20502;-72
2023/09/18 07:17:36;;;;;;;5.28;2.05;;;19.90;99.90;;;;;;5085208;28;20028;-72
2023/09/18 07:20:09;;;;;;;4.63;2.22;;;20.10;99.90;;;;;;5080434;28;20489;-72
2023/09/18 07:22:35;;;;;;;3.35;2.08;;;20.20;99.90;;;;;;5077730;28;20037;-73
2023/09/18 07:25:00;;;;;;;5.80;2.35;;;20.30;99.90;;;;;;5091063;28;20028;-74
2023/09/18 07:27:26;;;;;;;4.82;2.30;;;20.40;99.90;;;;;;5086540;28;20139;-72
2023/09/18 07:29:55;;;;;;;7.20;2.80;;;20.50;99.90;;;;;;5070977;28;20032;-72
2023/09/18 07:32:20;;;;;;;5.95;2.65;;;20.60;99.90;;;;;;5071119;28;20510;-73
2023/09/18 07:34:47;;;;;;;6.10;2.50;;;20.80;99.90;;;;;;5071320;28;20021;-74
2023/09/18 07:37:12;;;;;;;7.22;2.30;;;20.80;99.90;;;;;;5071276;28;20047;-75
2023/09/18 07:39:42;;;;;;;7.75;2.50;;;20.90;99.90;;;;;;5071482;28;20033;-75
2023/09/18 07:42:08;;;;;;;5.80;2.10;;;20.90;99.90;;;;;;5071007;28;20100;-74
2023/09/18 07:44:33;;;;;;;3.20;1.85;;;21.00;99.90;;;;;;5071101;28;20462;-73
2023/09/18 07:47:01;;;;;;;6.60;2.63;;;21.00;99.90;;;;;;5070982;28;20025;-75
2023/09/18 07:49:26;;;;;;;6.63;2.60;;;21.00;99.90;;;;;;5072223;28;20063;-74
2023/09/18 07:51:52;;;;;;;5.53;2.38;;;21.00;99.90;;;;;;5071586;28;20052;-74
2023/09/18 07:54:17;;;;;;;6.43;2.45;;;21.00;99.90;;;;;;5074978;28;20134;-75
2023/09/18 07:56:43;;;;;;;6.05;2.58;;;21.10;99.90;;;;;;5092979;28;20093;-76
2023/09/18 07:59:10;;;;;;;8.43;2.70;;;21.20;99.90;;;;;;5095607;28;20058;-75
2023/09/18 08:01:36;;;;;;;5.82;2.30;;;21.30;99.90;;;;;;5094690;28;20024;-75
2023/09/18 08:04:02;;;;;;;5.43;2.20;;;21.40;99.90;;;;;;5093045;28;20747;-75
2023/09/18 08:06:28;;;;;;;7.80;2.55;;;21.40;99.90;;;;;;5074128;28;20032;-74
2023/09/18 08:08:54;;;;;;;5.55;2.33;;;21.60;99.90;;;;;;5074416;28;20028;-75
2023/09/18 08:11:19;;;;;;;4.60;2.05;;;21.70;99.90;;;;;;5074470;28;20037;-75
2023/09/18 08:13:45;;;;;;;4.95;1.90;;;21.90;99.90;;;;;;5073819;28;20162;-73
2023/09/18 08:16:11;;;;;;;6.78;2.08;;;22.20;99.90;;;;;;5086747;28;20059;-73
2023/09/18 08:18:40;;;;;;;6.68;1.90;;;22.40;99.90;;;;;;5088253;28;20175;-72
2023/09/18 08:21:08;;;;;;;5.68;1.63;;;22.40;99.90;;;;;;5072576;28;20028;-72
2023/09/18 08:23:35;;;;;;;5.15;1.50;;;22.40;99.90;;;;;;5074162;28;20029;-71
2023/09/18 08:26:01;;;;;;;4.38;1.80;;;22.50;99.90;;;;;;5074392;28;20024;-71
2023/09/18 08:28:26;;;;;;;4.38;1.63;;;22.50;99.90;;;;;;5074127;28;20039;-72
2023/09/18 08:30:52;;;;;;;6.45;1.77;;;22.70;99.90;;;;;;5072707;28;20074;-72
2023/09/18 08:33:18;;;;;;;5.97;1.60;;;22.70;99.90;;;;;;5073872;28;20032;-75
2023/09/18 08:35:44;;;;;;;6.50;1.60;;;22.80;99.90;;;;;;5073898;28;20475;-72
2023/09/18 08:38:10;;;;;;;5.65;1.30;;;22.80;99.90;;;;;;5072526;28;20028;-72
2023/09/18 08:40:35;;;;;;;4.15;1.70;;;22.80;99.90;;;;;;5079671;28;20051;-71
2023/09/18 08:43:03;;;;;;;7.15;1.70;;;22.80;99.90;;;;;;5093927;28;20051;-71
2023/09/18 08:45:52;;;;;;;5.72;1.50;;;23.00;99.90;;;;;;5092560;28;20032;-73
2023/09/18 08:48:18;;;;;;;5.15;1.65;;;23.00;99.90;;;;;;5073667;28;20406;-72
2023/09/18 08:50:45;;;;;;;3.50;1.50;;;23.10;99.90;;;;;;5085155;28;20101;-73
2023/09/18 08:53:11;;;;;;;4.70;1.73;;;23.10;99.90;;;;;;5094286;28;20030;-72
2023/09/18 08:55:37;;;;;;;5.40;1.67;;;23.20;99.90;;;;;;5094276;28;20480;-72
2023/09/18 08:58:03;;;;;;;4.85;1.85;;;23.40;99.90;;;;;;5094302;28;20036;-73
2023/09/18 09:00:29;;;;;;;3.50;1.40;;;23.50;99.90;;;;;;5088878;28;20039;-73
2023/09/18 09:02:55;;;;;;;5.70;1.50;;;23.40;99.90;;;;;;5093568;28;20494;-72
2023/09/18 09:05:21;;;;;;;6.50;1.58;;;23.40;99.90;;;;;;5092159;28;20042;-72
2023/09/18 09:07:49;;;;;;;5.38;1.80;;;23.30;99.90;;;;;;5092887;28;20051;-71
2023/09/18 09:10:15;;;;;;;3.58;1.70;;;23.40;99.90;;;;;;5093790;28;20028;-72
2023/09/18 09:12:49;;;;;;;5.00;1.65;;;23.70;99.90;;;;;;5093133;28;20080;-72
2023/09/18 09:15:15;;;;;;;3.30;1.40;;;23.60;99.90;;;;;;5078088;28;20036;-74
2023/09/18 09:17:42;;;;;;;3.45;1.42;;;23.60;99.90;;;;;;5073478;28;20519;-73
2023/09/18 09:20:12;;;;;;;4.47;1.50;;;23.40;99.90;;;;;;5073152;28;20562;-73
2023/09/18 09:22:40;;;;;;;5.72;1.80;;;23.60;99.90;;;;;;5073071;28;20021;-73
2023/09/18 09:25:33;;;;;;;4.75;1.60;;;23.60;99.90;;;;;;5081847;28;20107;-73
2023/09/18 09:28:04;;;;;;;7.38;1.92;;;23.60;99.90;;;;;;5093211;28;20024;-73
2023/09/18 09:30:31;;;;;;;6.28;1.65;;;23.60;99.90;;;;;;5093002;28;20038;-73
2023/09/18 09:32:58;;;;;;;5.03;1.70;;;23.60;99.90;;;;;;5093650;28;20024;-73
2023/09/18 09:35:30;;;;;;;5.70;1.65;;;23.60;99.90;;;;;;5091994;28;20028;-73
2023/09/18 09:38:02;;;;;;;5.57;1.58;;;23.70;99.90;;;;;;5093035;28;20035;-74
2023/09/18 09:40:31;;;;;;;7.35;1.70;;;23.80;99.90;;;;;;5092807;28;20024;-72
2023/09/18 09:43:00;;;;;;;4.47;1.80;;;23.80;99.90;;;;;;5092840;28;20394;-73
2023/09/18 09:45:30;;;;;;;6.75;1.95;;;24.00;99.90;;;;;;5078402;28;20379;-68
2023/09/18 09:48:00;;;;;;;5.35;1.65;;;24.00;99.90;;;;;;5072850;28;20074;-70
2023/09/18 09:50:26;;;;;;;6.90;2.20;;;24.00;99.90;;;;;;5072492;28;20514;-70
2023/09/18 09:52:54;;;;;;;5.50;1.80;;;24.00;99.90;;;;;;5072357;28;20153;-69
2023/09/18 09:55:20;;;;;;;7.68;1.90;;;24.10;99.90;;;;;;5072867;28;20514;-70
2023/09/18 09:57:57;;;;;;;6.90;2.00;;;24.20;99.90;;;;;;5071986;28;20031;-69
2023/09/18 10:00:27;;;;;;;6.15;1.95;;;24.40;99.90;;;;;;5076633;28;20052;-71
2023/09/18 10:03:03;;;;;;;4.55;1.90;;;24.40;99.90;;;;;;5092671;28;20052;-70
2023/09/18 10:05:32;;;;;;;5.95;2.00;;;24.30;99.90;;;;;;5092518;28;20032;-69
2023/09/18 10:07:59;;;;;;;6.07;2.10;;;24.20;99.90;;;;;;5092168;28;20051;-68
2023/09/18 10:10:31;;;;;;;6.05;1.88;;;24.30;99.90;;;;;;5085584;28;20029;-69
2023/09/18 10:13:04;;;;;;;5.53;1.73;;;24.30;99.90;;;;;;5073579;28;20028;-69
2023/09/18 10:15:34;;;;;;;6.13;1.90;;;24.20;99.90;;;;;;5092260;28;20389;-68
2023/09/18 10:18:02;;;;;;;6.97;2.00;;;24.40;99.90;;;;;;5091305;28;20501;-70
2023/09/18 10:20:29;;;;;;;5.80;1.92;;;24.40;99.90;;;;;;5085485;28;20032;-70
2023/09/18 10:22:57;;;;;;;7.03;1.90;;;24.50;99.90;;;;;;5081845;28;20107;-70
2023/09/18 10:25:31;;;;;;;5.57;1.90;;;24.40;99.90;;;;;;5091953;28;20056;-69
2023/09/18 10:27:58;;;;;;;5.25;2.00;;;24.40;99.90;;;;;;5089596;28;20024;-69
2023/09/18 10:30:26;;;;;;;6.63;1.92;;;24.20;99.90;;;;;;5088883;28;20390;-70
2023/09/18 10:32:53;;;;;;;5.63;2.08;;;24.10;99.90;;;;;;5089480;28;20008;-69
2023/09/18 10:35:19;;;;;;;8.23;2.25;;;24.10;99.90;;;;;;5087692;28;20497;-70
2023/09/18 10:37:46;;;;;;;11.63;2.60;;;23.90;99.90;;;;;;5086414;28;20116;-68
2023/09/18 10:40:12;;;;;;;7.35;2.58;;;24.00;99.90;;;;;;5087055;28;20527;-68
2023/09/18 10:42:41;;;;;;;11.82;3.13;;;24.20;99.90;;;;;;5071021;28;20122;-68
2023/09/18 10:45:12;;;;;;;7.68;2.60;;;24.40;99.90;;;;;;5074227;28;20036;-68
2023/09/18 10:47:45;;;;;;;9.98;2.40;;;24.30;99.90;;;;;;5071551;28;20028;-67
2023/09/18 10:50:11;;;;;;;8.85;2.50;;;24.40;99.90;;;;;;5083605;28;20385;-68
2023/09/18 10:52:43;;;;;;;8.93;2.30;;;24.20;99.90;;;;;;5091466;28;20046;-67
2023/09/18 10:55:13;;;;;;;10.23;2.88;;;24.20;99.90;;;;;;5090877;28;20020;-67
2023/09/18 10:57:51;;;;;;;14.85;3.00;;;23.90;99.90;;;;;;5090690;28;20047;-67
2023/09/18 11:00:22;;;;;;;49.67;9.65;;;23.40;99.90;;;;;;5086554;28;20514;-66
2023/09/18 11:03:07;;;;;;;35.00;7.15;;;22.80;99.90;;;;;;5082161;28;20150;-66
2023/09/18 11:05:33;;;;;;;11.75;2.90;;;22.30;99.90;;;;;;5085150;28;20185;-69
2023/09/18 11:08:25;;;;;;;8.85;2.10;;;22.30;99.90;;;;;;5091094;28;20044;-69
2023/09/18 11:11:13;;;;;;;6.90;2.00;;;22.40;99.90;;;;;;5086505;28;20033;-68
2023/09/18 11:13:46;;;;;;;7.38;1.88;;;22.40;99.90;;;;;;5085652;28;20103;-70
2023/09/18 11:16:26;;;;;;;7.47;2.13;;;22.40;99.90;;;;;;5087232;28;20032;-69
2023/09/18 11:18:53;;;;;;;7.20;1.80;;;22.20;99.90;;;;;;5077959;28;20052;-69
2023/09/18 11:21:24;;;;;;;6.57;1.70;;;22.10;99.90;;;;;;5080607;28;20020;-69
2023/09/18 11:23:58;;;;;;;5.75;1.67;;;22.20;99.90;;;;;;5090646;28;20384;-70
2023/09/18 11:26:23;;;;;;;9.00;1.90;;;22.10;99.90;;;;;;5091216;28;20103;-70
2023/09/18 11:28:50;;;;;;;8.65;1.92;;;22.30;99.90;;;;;;5080875;28;20448;-70
2023/09/18 11:31:16;;;;;;;5.97;1.83;;;22.30;99.90;;;;;;5086847;28;20046;-70
2023/09/18 11:33:44;;;;;;;9.00;2.22;;;22.20;99.90;;;;;;5081922;28;20025;-71
2023/09/18 11:36:30;;;;;;;7.00;1.90;;;22.40;99.90;;;;;;5091272;28;20445;-70
2023/09/18 11:39:03;;;;;;;8.65;2.00;;;22.40;99.90;;;;;;5085154;28;20032;-71
2023/09/18 11:41:31;;;;;;;6.32;2.13;;;22.40;99.90;;;;;;5083731;28;20032;-71
2023/09/18 11:44:18;;;;;;;8.10;2.40;;;22.40;99.90;;;;;;5093917;28;20023;-71
2023/09/18 11:46:51;;;;;;;7.45;2.13;;;22.40;99.90;;;;;;5085956;28;20023;-70
2023/09/18 11:49:26;;;;;;;10.68;2.05;;;22.40;99.90;;;;;;5080276;28;20081;-70
2023/09/18 11:51:52;;;;;;;6.93;1.90;;;22.60;99.90;;;;;;5080326;28;20051;-71
2023/09/18 11:54:18;;;;;;;5.10;1.83;;;22.70;99.90;;;;;;5081636;28;20027;-71
2023/09/18 11:56:44;;;;;;;8.05;2.00;;;22.70;99.90;;;;;;5083241;28;20020;-69
2023/09/18 11:59:11;;;;;;;9.25;2.20;;;22.80;99.90;;;;;;5092099;28;20039;-71
2023/09/18 12:01:39;;;;;;;7.72;2.20;;;22.90;99.90;;;;;;5091887;28;20032;-70
2023/09/18 12:04:09;;;;;;;10.20;2.58;;;22.70;99.90;;;;;;5089179;28;20414;-70
2023/09/18 12:06:35;;;;;;;9.65;2.65;;;22.90;99.90;;;;;;5082803;28;20494;-70
2023/09/18 12:09:03;;;;;;;11.63;2.70;;;22.70;99.90;;;;;;5088892;28;20429;-69
2023/09/18 12:11:29;;;;;;;14.77;3.15;;;22.60;99.90;;;;;;5091149;28;20059;-69
2023/09/18 12:13:54;;;;;;;8.50;2.47;;;22.50;99.90;;;;;;5088611;28;20067;-69
2023/09/18 12:16:20;;;;;;;12.98;3.15;;;22.60;99.90;;;;;;5094173;28;20035;-70
2023/09/18 12:18:48;;;;;;;8.98;2.35;;;22.60;99.90;;;;;;5091588;28;20565;-68
2023/09/18 12:21:15;;;;;;;8.05;2.33;;;22.60;99.90;;;;;;5079771;28;20099;-67
2023/09/18 12:23:45;;;;;;;8.65;2.70;;;22.50;99.90;;;;;;5092934;28;20017;-67
2023/09/18 12:26:15;;;;;;;8.73;2.38;;;22.20;99.90;;;;;;5092983;28;20051;-67
2023/09/18 12:28:44;;;;;;;12.60;3.38;;;22.30;99.90;;;;;;5093804;28;20043;-68
2023/09/18 12:31:14;;;;;;;11.95;2.58;;;22.60;99.90;;;;;;5084213;28;20536;-69
2023/09/18 12:33:49;;;;;;;12.52;2.70;;;22.60;99.90;;;;;;5076738;28;20460;-68
2023/09/18 12:36:19;;;;;;;10.27;2.58;;;22.60;99.90;;;;;;5091042;28;20024;-68
2023/09/18 12:38:55;;;;;;;9.93;2.92;;;22.90;99.90;;;;;;5093364;28;20032;-69
2023/09/18 12:41:23;;;;;;;9.75;2.45;;;22.90;99.90;;;;;;5082614;28;20031;-69
2023/09/18 12:43:50;;;;;;;9.43;2.55;;;22.90;99.90;;;;;;5075102;28;20024;-70
2023/09/18 12:46:15;;;;;;;8.23;2.20;;;23.10;99.90;;;;;;5093516;28;20020;-68